createdAt,value
2018-05-25T00:00:59.989Z,3.07
2018-05-25T00:21:25.140Z,4.00
2018-05-25T00:22:59.776Z,4.10
2018-05-25T00:24:37.347Z,6.70
2018-05-25T00:26:12.890Z,5.77
2018-05-25T00:27:49.326Z,5.50
2018-05-25T00:29:24.231Z,5.00
2018-05-25T00:31:01.099Z,4.63
2018-05-25T00:32:36.565Z,4.97
2018-05-25T00:34:11.815Z,4.90
2018-05-25T00:35:47.556Z,6.23
2018-05-25T00:37:22.074Z,5.70
2018-05-25T00:38:56.901Z,5.30
2018-05-25T00:40:31.883Z,5.67
2018-05-25T00:42:09.832Z,4.80
2018-05-25T00:43:46.351Z,4.77
2018-05-25T00:45:22.225Z,4.40
2018-05-25T00:46:59.268Z,4.80
2018-05-25T00:48:34.699Z,5.03
2018-05-25T00:50:11.654Z,4.60
2018-05-25T00:51:45.942Z,4.90
2018-05-25T00:53:21.722Z,4.80
2018-05-25T00:55:07.770Z,4.67
2018-05-25T00:56:44.179Z,6.27
2018-05-25T00:58:22.555Z,5.27
2018-05-25T00:59:59.235Z,5.90
2018-05-25T01:01:35.959Z,5.30
2018-05-25T01:03:10.334Z,4.93
2018-05-25T01:04:45.958Z,5.47
2018-05-25T01:06:24.624Z,5.30
2018-05-25T01:08:02.373Z,5.40
2018-05-25T01:09:38.779Z,5.97
2018-05-25T01:11:15.056Z,5.83
2018-05-25T01:12:52.952Z,5.43
2018-05-25T01:14:28.791Z,5.47
2018-05-25T01:16:04.494Z,5.40
2018-05-25T01:17:40.449Z,5.40
2018-05-25T01:19:17.928Z,4.90
2018-05-25T01:20:52.844Z,5.27
2018-05-25T01:22:29.531Z,5.57
2018-05-25T01:24:05.478Z,5.27
2018-05-25T01:25:40.821Z,5.77
2018-05-25T01:46:10.234Z,6.00
2018-05-25T01:47:44.863Z,5.13
2018-05-25T01:49:21.717Z,5.23
2018-05-25T01:50:59.537Z,5.50
2018-05-25T01:52:34.997Z,5.90
2018-05-25T01:54:11.723Z,5.60
2018-05-25T01:55:48.170Z,5.77
2018-05-25T01:57:25.322Z,5.50
2018-05-25T01:59:01.138Z,7.37
2018-05-25T02:00:37.966Z,6.47
2018-05-25T02:02:12.769Z,5.90
2018-05-25T02:03:48.763Z,5.90
2018-05-25T02:05:24.840Z,5.87
2018-05-25T02:07:02.981Z,6.30
2018-05-25T02:08:39.850Z,5.90
2018-05-25T02:10:16.040Z,5.43
2018-05-25T02:11:51.393Z,5.13
2018-05-25T02:13:28.783Z,5.50
2018-05-25T02:15:05.831Z,5.60
2018-05-25T02:16:42.227Z,5.90
2018-05-25T02:18:18.717Z,6.47
2018-05-25T02:19:57.215Z,6.30
2018-05-25T02:21:31.722Z,6.80
2018-05-25T02:23:08.744Z,6.33
2018-05-25T02:24:44.983Z,6.00
2018-05-25T02:26:21.172Z,7.17
2018-05-25T02:27:57.155Z,7.20
2018-05-25T02:29:35.479Z,6.93
2018-05-25T02:31:11.099Z,6.27
2018-05-25T02:32:46.652Z,6.60
2018-05-25T02:34:22.327Z,7.10
2018-05-25T02:36:00.327Z,7.17
2018-05-25T02:37:36.691Z,7.67
2018-05-25T02:39:14.710Z,7.60
2018-05-25T02:40:51.575Z,7.30
2018-05-25T02:42:27.085Z,6.90
2018-05-25T02:44:03.223Z,6.87
2018-05-25T02:45:40.771Z,7.93
2018-05-25T02:47:15.792Z,8.40
2018-05-25T02:48:50.819Z,7.50
2018-05-25T02:50:26.045Z,7.37
2018-05-25T02:52:02.345Z,7.13
2018-05-25T02:53:38.687Z,7.97
2018-05-25T02:55:14.892Z,6.80
2018-05-25T02:56:52.082Z,7.53
2018-05-25T02:58:29.824Z,7.63
2018-05-25T03:00:06.606Z,7.93
2018-05-25T03:01:42.333Z,8.30
2018-05-25T03:03:18.829Z,8.20
2018-05-25T03:04:56.967Z,7.50
2018-05-25T03:06:33.543Z,7.10
2018-05-25T03:08:08.422Z,9.53
2018-05-25T03:09:44.729Z,8.83
2018-05-25T03:11:20.182Z,8.13
2018-05-25T03:12:56.143Z,8.00
2018-05-25T03:14:32.359Z,8.13
2018-05-25T03:16:10.683Z,8.10
2018-05-25T03:17:48.348Z,8.57
2018-05-25T03:19:27.268Z,7.73
2018-05-25T03:21:02.893Z,7.80
2018-05-25T03:22:38.778Z,7.30
2018-05-25T03:24:17.134Z,7.50
2018-05-25T03:25:52.351Z,7.40
2018-05-25T03:27:28.311Z,9.30
2018-05-25T03:29:03.536Z,9.13
2018-05-25T03:30:39.478Z,8.63
2018-05-25T03:32:15.393Z,8.07
2018-05-25T03:33:51.869Z,8.40
2018-05-25T03:35:27.438Z,8.17
2018-05-25T03:37:03.723Z,7.67
2018-05-25T03:38:41.802Z,8.20
2018-05-25T03:40:16.887Z,8.00
2018-05-25T03:41:52.152Z,9.03
2018-05-25T03:43:27.935Z,8.60
2018-05-25T03:45:04.680Z,8.50
2018-05-25T03:46:41.308Z,8.43
2018-05-25T03:48:16.698Z,8.53
2018-05-25T03:49:53.957Z,8.93
2018-05-25T03:51:29.001Z,9.63
2018-05-25T03:53:04.494Z,11.57
2018-05-25T03:54:40.934Z,12.00
2018-05-25T03:56:18.807Z,11.57
2018-05-25T03:57:56.193Z,11.43
2018-05-25T03:59:43.401Z,10.30
2018-05-25T04:01:31.242Z,9.50
2018-05-25T04:03:07.866Z,9.87
2018-05-25T04:04:44.786Z,10.37
2018-05-25T04:06:20.967Z,10.70
2018-05-25T04:07:56.788Z,11.00
2018-05-25T04:09:33.282Z,10.43
2018-05-25T04:11:10.866Z,10.73
2018-05-25T04:12:47.778Z,11.50
2018-05-25T04:14:23.689Z,10.07
2018-05-25T04:15:59.274Z,10.97
2018-05-25T04:17:37.332Z,9.23
2018-05-25T04:19:12.425Z,10.13
2018-05-25T04:39:40.156Z,12.43
2018-05-25T04:41:15.325Z,12.60
2018-05-25T04:42:52.222Z,11.57
2018-05-25T05:03:17.579Z,12.60
2018-05-25T05:04:55.072Z,10.87
2018-05-25T05:06:30.591Z,12.27
2018-05-25T05:08:09.696Z,11.93
2018-05-25T05:28:39.726Z,13.30
2018-05-25T05:30:20.044Z,13.93
2018-05-25T05:31:57.007Z,13.67
2018-05-25T05:33:35.529Z,14.73
2018-05-25T05:35:12.501Z,13.50
2018-05-25T05:36:51.471Z,14.33
2018-05-25T05:38:31.409Z,13.27
2018-05-25T05:40:07.384Z,13.20
2018-05-25T05:41:44.208Z,13.40
2018-05-25T05:43:20.795Z,14.57
2018-05-25T05:44:58.694Z,13.77
2018-05-25T05:46:36.198Z,15.60
2018-05-25T05:48:10.793Z,14.43
2018-05-25T05:49:48.072Z,15.13
2018-05-25T05:51:25.697Z,15.27
2018-05-25T05:53:02.828Z,14.80
2018-05-25T05:54:39.162Z,14.43
2018-05-25T05:56:15.652Z,15.20
2018-05-25T05:57:51.475Z,14.80
2018-05-25T05:59:27.529Z,14.97
2018-05-25T06:01:03.863Z,16.47
2018-05-25T06:02:40.265Z,15.27
2018-05-25T06:04:16.297Z,16.27
2018-05-25T06:05:54.367Z,16.70
2018-05-25T06:07:31.077Z,15.73
2018-05-25T06:09:07.590Z,16.57
2018-05-25T06:10:43.139Z,17.23
2018-05-25T06:12:19.151Z,15.17
2018-05-25T06:13:55.314Z,17.50
2018-05-25T06:15:31.213Z,18.23
2018-05-25T06:17:08.173Z,16.43
2018-05-25T06:18:45.540Z,16.03
2018-05-25T06:20:21.751Z,14.80
2018-05-25T06:22:00.860Z,16.17
2018-05-25T06:23:35.871Z,16.60
2018-05-25T06:25:14.002Z,15.30
2018-05-25T06:26:53.392Z,16.93
2018-05-25T06:28:29.641Z,15.80
2018-05-25T06:30:03.621Z,16.47
2018-05-25T06:31:40.887Z,15.20
2018-05-25T06:33:18.282Z,14.63
2018-05-25T06:34:57.424Z,17.60
2018-05-25T06:36:33.806Z,15.03
2018-05-25T06:38:09.998Z,15.83
2018-05-25T06:39:45.510Z,17.13
2018-05-25T06:41:22.046Z,15.80
2018-05-25T06:42:58.459Z,15.80
2018-05-25T06:44:35.143Z,14.70
2018-05-25T06:46:09.653Z,14.80
2018-05-25T06:47:46.180Z,13.67
2018-05-25T06:49:22.165Z,15.30
2018-05-25T06:50:59.515Z,15.40
2018-05-25T06:52:38.012Z,13.73
2018-05-25T06:54:13.060Z,15.90
2018-05-25T06:55:48.590Z,14.60
2018-05-25T06:57:25.760Z,14.53
2018-05-25T06:59:01.070Z,14.00
2018-05-25T07:00:36.801Z,15.50
2018-05-25T07:02:12.074Z,14.40
2018-05-25T07:03:47.047Z,15.40
2018-05-25T07:05:22.654Z,13.33
2018-05-25T07:07:00.277Z,14.07
2018-05-25T07:08:34.540Z,13.20
2018-05-25T07:10:10.515Z,13.77
2018-05-25T07:11:46.112Z,13.60
2018-05-25T07:13:23.976Z,14.40
2018-05-25T07:14:59.425Z,14.90
2018-05-25T07:16:36.380Z,15.57
2018-05-25T07:18:12.551Z,14.33
2018-05-25T07:19:49.690Z,15.23
2018-05-25T07:21:26.091Z,15.27
2018-05-25T07:23:01.116Z,12.77
2018-05-25T07:24:37.175Z,15.20
2018-05-25T07:26:13.017Z,14.37
2018-05-25T07:27:50.421Z,12.60
2018-05-25T07:29:25.640Z,13.43
2018-05-25T07:31:03.715Z,13.80
2018-05-25T07:32:38.912Z,12.93
2018-05-25T07:34:15.234Z,15.77
2018-05-25T07:35:51.558Z,14.47
2018-05-25T07:37:27.436Z,13.93
2018-05-25T07:39:03.419Z,13.77
2018-05-25T07:40:38.809Z,13.37
2018-05-25T07:42:15.477Z,13.40
2018-05-25T07:43:51.092Z,13.63
2018-05-25T07:45:28.108Z,11.70
2018-05-25T07:47:03.689Z,10.23
2018-05-25T07:48:40.340Z,9.87
2018-05-25T07:50:17.084Z,12.00
2018-05-25T07:51:53.199Z,9.60
2018-05-25T07:53:29.967Z,8.93
2018-05-25T07:55:08.376Z,9.97
2018-05-25T07:56:43.817Z,7.60
2018-05-25T07:58:19.866Z,7.70
2018-05-25T07:59:55.939Z,8.30
2018-05-25T08:01:32.695Z,7.10
2018-05-25T08:03:09.450Z,6.13
2018-05-25T08:04:45.375Z,7.97
2018-05-25T08:06:21.982Z,8.67
2018-05-25T08:07:57.949Z,8.37
2018-05-25T08:09:35.450Z,9.33
2018-05-25T08:11:12.877Z,7.27
2018-05-25T08:12:49.518Z,6.93
2018-05-25T08:14:27.682Z,7.10
2018-05-25T08:16:03.816Z,7.70
2018-05-25T08:17:39.422Z,8.90
2018-05-25T08:19:17.683Z,8.93
2018-05-25T08:20:53.024Z,9.43
2018-05-25T08:22:29.588Z,8.70
2018-05-25T08:24:04.221Z,7.97
2018-05-25T08:25:41.632Z,8.30
2018-05-25T08:27:18.431Z,7.60
2018-05-25T08:28:54.018Z,7.17
2018-05-25T08:30:33.057Z,7.00
2018-05-25T08:32:07.759Z,6.03
2018-05-25T08:33:43.922Z,6.03
2018-05-25T08:35:19.539Z,6.07
2018-05-25T08:36:55.415Z,6.03
2018-05-25T08:38:31.895Z,5.77
2018-05-25T08:40:08.354Z,6.33
2018-05-25T08:41:44.746Z,5.93
2018-05-25T08:43:20.141Z,5.93
2018-05-25T08:44:55.783Z,5.33
2018-05-25T08:46:31.983Z,5.50
2018-05-25T08:48:08.879Z,5.53
2018-05-25T08:49:46.557Z,5.33
2018-05-25T08:51:24.539Z,5.50
2018-05-25T08:53:01.059Z,5.50
2018-05-25T08:54:39.508Z,5.00
2018-05-25T08:56:15.198Z,4.27
2018-05-25T09:16:43.241Z,3.70
2018-05-25T09:18:19.705Z,3.67
2018-05-25T09:19:56.830Z,4.00
2018-05-25T09:21:32.643Z,3.60
2018-05-25T09:23:08.342Z,3.30
2018-05-25T09:24:45.684Z,4.00
2018-05-25T09:26:21.807Z,4.10
2018-05-25T09:27:57.905Z,4.00
2018-05-25T09:29:33.919Z,4.10
2018-05-25T09:31:11.672Z,5.17
2018-05-25T09:32:47.668Z,4.60
2018-05-25T09:34:22.559Z,4.40
2018-05-25T09:35:57.881Z,4.97
2018-05-25T09:37:32.974Z,5.40
2018-05-25T09:39:09.005Z,5.30
2018-05-25T09:40:43.883Z,5.50
2018-05-25T09:42:19.692Z,6.27
2018-05-25T09:43:56.523Z,6.93
2018-05-25T09:45:33.360Z,5.10
2018-05-25T09:47:09.041Z,5.60
2018-05-25T09:48:45.804Z,4.93
2018-05-25T09:50:22.915Z,4.87
2018-05-25T09:52:00.197Z,5.40
2018-05-25T09:53:36.635Z,5.40
2018-05-25T09:55:13.054Z,5.40
2018-05-25T09:57:04.859Z,5.50
2018-05-25T09:58:40.921Z,5.80
2018-05-25T10:00:17.615Z,6.70
2018-05-25T10:01:54.278Z,5.87
2018-05-25T10:03:32.455Z,5.30
2018-05-25T10:05:07.441Z,5.00
2018-05-25T10:06:44.786Z,5.23
2018-05-25T10:08:21.684Z,5.50
2018-05-25T10:09:59.735Z,5.70
2018-05-25T10:11:34.488Z,5.40
2018-05-25T10:13:10.847Z,5.70
2018-05-25T10:14:59.006Z,6.10
2018-05-25T10:16:36.421Z,6.60
2018-05-25T10:18:11.673Z,6.87
2018-05-25T10:19:49.270Z,5.93
2018-05-25T10:21:25.932Z,4.83
2018-05-25T10:23:01.361Z,6.07
2018-05-25T10:24:37.812Z,5.03
2018-05-25T10:26:13.845Z,5.70
2018-05-25T10:27:50.434Z,5.20
2018-05-25T10:29:27.049Z,6.27
2018-05-25T10:31:04.331Z,5.10
2018-05-25T10:32:40.712Z,5.07
2018-05-25T10:34:16.939Z,5.07
2018-05-25T10:35:53.115Z,5.57
2018-05-25T10:37:28.887Z,4.67
2018-05-25T10:39:06.169Z,5.57
2018-05-25T10:40:41.500Z,4.47
2018-05-25T10:42:17.320Z,4.30
2018-05-25T10:43:53.613Z,4.73
2018-05-25T10:45:30.818Z,5.67
2018-05-25T10:47:07.663Z,4.87
2018-05-25T10:48:44.550Z,4.83
2018-05-25T10:50:22.129Z,5.97
2018-05-25T10:51:57.105Z,5.27
2018-05-25T10:53:35.141Z,5.37
2018-05-25T10:55:10.882Z,4.20
2018-05-25T10:56:48.716Z,4.10
2018-05-25T10:58:24.187Z,4.33
2018-05-25T11:00:00.456Z,5.37
2018-05-25T11:01:36.542Z,5.20
2018-05-25T11:03:11.967Z,6.13
2018-05-25T11:04:46.228Z,4.80
2018-05-25T11:06:23.747Z,4.73
2018-05-25T11:08:00.387Z,4.70
2018-05-25T11:09:35.057Z,5.10
2018-05-25T11:11:11.329Z,4.87
2018-05-25T11:12:45.435Z,4.27
2018-05-25T11:14:22.425Z,5.20
2018-05-25T11:15:57.055Z,4.80
2018-05-25T11:17:33.221Z,4.27
2018-05-25T11:19:10.353Z,4.23
2018-05-25T11:20:45.519Z,5.40
2018-05-25T11:22:23.614Z,5.12
2018-05-25T11:24:01.179Z,4.45
2018-05-25T11:25:39.461Z,4.70
2018-05-25T11:27:15.239Z,5.28
2018-05-25T11:28:51.555Z,4.30
2018-05-25T11:30:28.148Z,4.05
2018-05-25T11:32:04.391Z,4.40
2018-05-25T11:33:39.776Z,4.47
2018-05-25T11:35:17.921Z,4.50
2018-05-25T11:36:54.078Z,5.22
2018-05-25T11:38:30.813Z,4.47
2018-05-25T11:40:06.128Z,5.18
2018-05-25T11:41:42.103Z,4.70
2018-05-25T11:43:17.472Z,3.65
2018-05-25T11:44:54.345Z,3.72
2018-05-25T11:46:29.674Z,4.40
2018-05-25T11:48:05.802Z,4.03
2018-05-25T11:49:45.199Z,4.05
2018-05-25T12:10:12.327Z,5.20
2018-05-25T12:11:48.137Z,4.70
2018-05-25T12:13:23.718Z,4.27
2018-05-25T12:14:59.695Z,4.40
2018-05-25T12:16:37.328Z,3.70
2018-05-25T12:18:12.033Z,3.97
2018-05-25T12:19:48.616Z,3.60
2018-05-25T12:21:23.846Z,3.97
2018-05-25T12:22:59.215Z,3.50
2018-05-25T12:24:36.567Z,3.77
2018-05-25T12:26:12.337Z,3.57
2018-05-25T12:27:49.506Z,3.30
2018-05-25T12:29:24.625Z,3.47
2018-05-25T12:31:01.751Z,3.63
2018-05-25T12:32:37.873Z,3.30
2018-05-25T12:34:16.008Z,3.50
2018-05-25T12:35:54.578Z,3.60
2018-05-25T12:56:25.959Z,3.17
2018-05-25T12:58:02.297Z,3.40
2018-05-25T12:59:40.783Z,3.40
2018-05-25T13:01:17.360Z,3.97
2018-05-25T13:02:55.399Z,3.83
2018-05-25T13:04:31.657Z,3.57
2018-05-25T13:06:08.222Z,3.73
2018-05-25T13:07:44.955Z,3.93
2018-05-25T13:09:22.433Z,4.20
2018-05-25T13:10:57.392Z,3.60
2018-05-25T13:12:33.341Z,3.70
2018-05-25T13:14:10.992Z,3.63
2018-05-25T13:15:46.193Z,3.63
2018-05-25T13:17:21.141Z,4.13
2018-05-25T13:18:57.707Z,4.33
2018-05-25T13:20:35.754Z,3.70
2018-05-25T13:22:11.032Z,3.60
2018-05-25T13:23:46.905Z,3.28
2018-05-25T13:25:25.172Z,3.60
2018-05-25T13:27:01.146Z,3.60
2018-05-25T13:28:37.803Z,3.58
2018-05-25T13:30:13.598Z,3.40
2018-05-25T13:31:49.606Z,4.03
2018-05-25T13:33:25.786Z,3.77
2018-05-25T13:35:02.362Z,3.60
2018-05-25T13:36:38.393Z,3.60
2018-05-25T13:38:15.859Z,3.50
2018-05-25T13:39:50.493Z,3.63
2018-05-25T13:41:26.615Z,3.70
2018-05-25T13:43:07.827Z,3.77
2018-05-25T13:44:43.993Z,3.60
2018-05-25T13:46:24.229Z,3.50
2018-05-25T13:48:08.821Z,3.50
2018-05-25T13:52:04.643Z,3.47
2018-05-25T13:55:16.551Z,3.37
2018-05-25T13:56:51.877Z,3.80
2018-05-25T13:58:26.260Z,3.90
2018-05-25T14:00:01.449Z,3.40
2018-05-25T14:01:37.212Z,3.93
2018-05-25T14:03:11.109Z,3.43
2018-05-25T14:04:48.454Z,3.70
2018-05-25T14:06:22.965Z,3.70
2018-05-25T14:07:57.472Z,3.33
2018-05-25T14:09:31.595Z,3.70
2018-05-25T14:12:44.884Z,3.50
2018-05-25T14:14:19.604Z,3.83
2018-05-25T14:15:53.513Z,3.57
2018-05-25T14:17:27.416Z,3.50
2018-05-25T14:19:01.297Z,3.37
2018-05-25T14:20:46.603Z,4.03
2018-05-25T14:22:20.529Z,3.20
2018-05-25T14:23:54.386Z,3.13
2018-05-25T14:25:28.302Z,3.63
2018-05-25T14:27:02.986Z,3.10
2018-05-25T14:28:36.879Z,3.50
2018-05-25T14:30:10.816Z,3.60
2018-05-25T14:31:45.461Z,3.40
2018-05-25T14:33:20.099Z,3.50
2018-05-25T14:34:53.982Z,3.23
2018-05-25T14:36:27.867Z,3.30
2018-05-25T14:38:01.749Z,3.70
2018-05-25T14:39:37.101Z,3.20
2018-05-25T14:41:11.013Z,2.97
2018-05-25T14:42:44.919Z,3.60
2018-05-25T14:44:18.785Z,3.53
2018-05-25T14:45:52.661Z,3.40
2018-05-25T14:47:28.056Z,3.50
2018-05-25T14:49:02.695Z,3.40
2018-05-25T14:50:40.111Z,3.67
2018-05-25T14:52:14.040Z,3.20
2018-05-25T14:53:47.945Z,3.37
2018-05-25T14:55:21.830Z,3.47
2018-05-25T14:56:55.730Z,3.80
2018-05-25T14:58:29.672Z,3.70
2018-05-25T15:00:03.713Z,3.10
2018-05-25T15:01:37.605Z,3.23
2018-05-25T15:03:11.515Z,3.00
2018-05-25T15:04:45.425Z,3.40
2018-05-25T15:06:20.059Z,3.40
2018-05-25T15:07:53.924Z,3.50
2018-05-25T15:09:27.821Z,3.60
2018-05-25T15:11:01.783Z,3.30
2018-05-25T15:12:35.687Z,3.30
2018-05-25T15:14:09.576Z,3.27
2018-05-25T15:15:44.317Z,3.67
2018-05-25T15:17:19.047Z,3.07
2018-05-25T15:18:53.620Z,3.17
2018-05-25T15:20:28.425Z,2.90
2018-05-25T15:22:02.334Z,3.50
2018-05-25T15:23:36.248Z,3.47
2018-05-25T15:25:10.172Z,3.90
2018-05-25T15:26:44.189Z,3.17
2018-05-25T15:28:18.896Z,3.23
2018-05-25T15:29:52.807Z,3.10
2018-05-25T15:31:26.682Z,3.30
2018-05-25T15:33:00.665Z,2.90
2018-05-25T15:34:35.343Z,3.40
2018-05-25T15:36:10.035Z,3.53
2018-05-25T15:37:43.964Z,3.50
2018-05-25T15:39:17.985Z,3.90
2018-05-25T15:40:51.904Z,3.30
2018-05-25T15:42:25.783Z,3.53
2018-05-25T15:43:59.716Z,2.70
2018-05-25T15:45:33.641Z,3.13
2018-05-25T15:47:08.324Z,3.03
2018-05-25T15:48:42.219Z,3.10
2018-05-25T15:50:16.097Z,2.80
2018-05-25T15:51:50.001Z,3.33
2018-05-25T15:53:23.930Z,3.30
2018-05-25T15:54:57.831Z,3.53
2018-05-25T15:56:31.714Z,3.57
2018-05-25T15:58:05.664Z,3.20
2018-05-25T15:59:39.585Z,3.63
2018-05-25T16:01:13.499Z,2.97
2018-05-25T16:02:48.089Z,3.17
2018-05-25T16:04:22.318Z,2.80
2018-05-25T16:05:56.255Z,3.30
2018-05-25T16:07:30.200Z,2.93
2018-05-25T16:09:04.940Z,3.17
2018-05-25T16:10:38.817Z,2.80
2018-05-25T16:12:12.784Z,3.00
2018-05-25T16:13:47.991Z,2.73
2018-05-25T16:15:23.359Z,3.27
2018-05-25T16:16:58.686Z,3.10
2018-05-25T16:18:32.570Z,3.40
2018-05-25T16:20:07.607Z,3.30
2018-05-25T16:21:41.546Z,3.47
2018-05-25T16:23:16.133Z,3.80
2018-05-25T16:24:50.869Z,3.57
2018-05-25T16:26:24.810Z,3.80
2018-05-25T16:27:58.733Z,3.20
2018-05-25T16:29:32.652Z,3.40
2018-05-25T16:31:06.628Z,3.50
2018-05-25T16:32:40.546Z,3.50
2018-05-25T16:34:14.507Z,3.23
2018-05-25T16:35:48.450Z,3.03
2018-05-25T16:37:22.791Z,3.10
2018-05-25T16:38:56.680Z,2.90
2018-05-25T16:40:31.399Z,3.15
2018-05-25T16:42:05.981Z,3.10
2018-05-25T16:43:40.700Z,3.20
2018-05-25T16:45:15.411Z,3.30
2018-05-25T16:46:49.386Z,3.27
2018-05-25T16:48:23.698Z,2.80
2018-05-25T16:49:58.393Z,2.70
2018-05-25T16:51:32.327Z,3.10
2018-05-25T16:57:32.557Z,3.13
2018-05-25T16:59:06.439Z,3.47
2018-05-25T17:00:40.813Z,3.33
2018-05-25T17:02:14.689Z,2.87
2018-05-25T17:03:48.601Z,2.87
2018-05-25T17:05:22.486Z,3.10
2018-05-25T17:06:56.396Z,2.87
2018-05-25T17:08:30.291Z,3.30
2018-05-25T17:10:04.186Z,3.20
2018-05-25T17:11:38.070Z,3.60
2018-05-25T17:13:11.988Z,3.30
2018-05-25T17:14:45.881Z,3.00
2018-05-25T17:16:19.800Z,3.80
2018-05-25T17:17:53.672Z,3.27
2018-05-25T17:19:27.603Z,3.23
2018-05-25T17:21:05.575Z,3.13
2018-05-25T17:22:55.130Z,3.27
2018-05-25T17:24:38.605Z,3.30
2018-05-25T17:26:12.523Z,4.13
2018-05-25T17:27:47.181Z,3.63
2018-05-25T17:29:21.096Z,3.60
2018-05-25T17:30:55.738Z,3.13
2018-05-25T17:32:29.618Z,3.27
2018-05-25T17:34:03.569Z,3.00
2018-05-25T17:35:37.470Z,3.37
2018-05-25T17:37:11.419Z,3.37
2018-05-25T17:38:45.356Z,3.57
2018-05-25T17:40:19.239Z,3.60
2018-05-25T17:41:53.185Z,3.10
2018-05-25T17:43:27.453Z,3.43
2018-05-25T17:45:02.116Z,3.60
2018-05-25T17:46:36.125Z,3.50
2018-05-25T17:48:10.110Z,3.47
2018-05-25T17:49:44.058Z,3.53
2018-05-25T17:51:18.132Z,3.60
2018-05-25T17:52:52.361Z,3.43
2018-05-25T17:54:26.409Z,3.60
2018-05-25T17:56:00.573Z,3.57
2018-05-25T17:57:34.460Z,3.27
2018-05-25T17:59:08.318Z,3.73
2018-05-25T18:00:42.359Z,3.70
2018-05-25T18:02:16.496Z,3.70
2018-05-25T18:03:51.339Z,3.80
2018-05-25T18:05:25.297Z,3.60
2018-05-25T18:06:59.174Z,3.70
2018-05-25T18:08:33.090Z,3.80
2018-05-25T18:10:07.005Z,3.37
2018-05-25T18:11:40.884Z,3.47
2018-05-25T18:13:15.022Z,3.60
2018-05-25T18:14:49.081Z,4.03
2018-05-25T18:16:23.121Z,3.40
2018-05-25T18:17:57.083Z,3.70
2018-05-25T18:19:31.716Z,3.70
2018-05-25T18:21:05.768Z,4.10
2018-05-25T18:22:40.501Z,3.80
2018-05-25T18:24:14.428Z,4.03
2018-05-25T18:25:49.214Z,4.20
2018-05-25T18:27:23.109Z,4.10
2018-05-25T18:28:57.825Z,4.40
2018-05-25T18:30:31.756Z,4.10
2018-05-25T18:32:05.694Z,3.97
2018-05-25T18:33:39.625Z,4.10
2018-05-25T18:35:13.637Z,3.93
2018-05-25T18:36:48.379Z,3.87
2018-05-25T18:38:22.327Z,4.10
2018-05-25T18:39:56.414Z,4.23
2018-05-25T18:41:30.333Z,4.10
2018-05-25T18:43:04.252Z,4.50
2018-05-25T18:44:38.257Z,3.83
2018-05-25T18:46:12.889Z,4.77
2018-05-25T18:47:46.814Z,4.00
2018-05-25T18:49:20.717Z,3.77
2018-05-25T18:50:54.983Z,4.77
2018-05-25T18:52:28.942Z,4.37
2018-05-25T18:56:13.834Z,4.40
2018-05-25T18:57:47.786Z,4.30
2018-05-25T18:59:21.688Z,4.47
2018-05-25T19:00:57.533Z,4.00
2018-05-25T19:02:31.491Z,4.90
2018-05-25T19:04:05.426Z,4.70
2018-05-25T19:05:39.309Z,4.63
2018-05-25T19:07:13.173Z,5.20
2018-05-25T19:08:48.679Z,4.30
2018-05-25T19:10:24.481Z,4.70
2018-05-25T19:11:58.795Z,5.10
2018-05-25T19:13:35.534Z,4.60
2018-05-25T19:15:10.255Z,4.90
2018-05-25T19:16:45.156Z,4.97
2018-05-25T19:18:21.634Z,4.87
2018-05-25T19:19:56.828Z,5.03
2018-05-25T19:21:32.676Z,5.00
2018-05-25T19:23:07.095Z,4.97
2018-05-25T19:24:43.082Z,5.40
2018-05-25T19:26:18.379Z,5.10
2018-05-25T19:27:52.539Z,5.07
2018-05-25T19:29:26.949Z,4.30
2018-05-25T19:31:04.066Z,4.07
2018-05-25T19:32:40.777Z,4.60
2018-05-25T19:34:15.471Z,4.97
2018-05-25T19:35:53.948Z,4.73
2018-05-25T19:37:29.506Z,4.50
2018-05-25T19:39:06.725Z,4.83
2018-05-25T19:40:43.267Z,4.77
2018-05-25T19:42:19.799Z,4.80
2018-05-25T19:43:55.080Z,4.70
2018-05-25T19:45:30.341Z,4.60
2018-05-25T19:47:06.698Z,4.53
2018-05-25T19:48:45.726Z,4.97
2018-05-25T19:50:20.648Z,4.73
2018-05-25T19:51:54.655Z,4.97
2018-05-25T19:53:30.760Z,5.43
2018-05-25T19:55:06.589Z,5.10
2018-05-25T19:56:42.651Z,5.07
2018-05-25T19:58:17.404Z,5.27
2018-05-25T19:59:51.414Z,4.77
2018-05-25T20:01:25.469Z,5.60
2018-05-25T20:03:02.137Z,5.30
2018-05-25T20:04:39.549Z,4.67
2018-05-25T20:06:20.343Z,5.13
2018-05-25T20:07:57.759Z,5.00
2018-05-25T20:09:35.663Z,5.07
2018-05-25T20:11:16.451Z,5.10
2018-05-25T20:12:53.996Z,5.80
2018-05-25T20:14:32.346Z,7.77
2018-05-25T20:16:08.016Z,5.93
2018-05-25T20:17:43.795Z,5.80
2018-05-25T20:19:22.147Z,5.77
2018-05-25T20:20:56.676Z,5.50
2018-05-25T20:22:31.416Z,5.90
2018-05-25T20:24:06.846Z,6.00
2018-05-25T20:25:43.256Z,6.20
2018-05-25T20:27:22.729Z,6.30
2018-05-25T20:28:59.181Z,7.60
2018-05-25T20:30:33.158Z,8.53
2018-05-25T20:32:08.952Z,8.63
2018-05-25T20:33:45.209Z,8.03
2018-05-25T20:35:19.227Z,9.73
2018-05-25T20:36:53.207Z,10.37
2018-05-25T20:38:27.248Z,11.57
2018-05-25T20:40:01.323Z,14.13
2018-05-25T20:41:35.331Z,13.63
2018-05-25T20:43:10.111Z,13.60
2018-05-25T20:44:44.887Z,13.57
2018-05-25T20:46:18.855Z,14.53
2018-05-25T20:47:52.834Z,13.33
2018-05-25T20:49:26.825Z,11.97
2018-05-25T20:51:00.789Z,12.93
2018-05-25T20:52:34.911Z,15.33
2018-05-25T20:54:08.852Z,15.80
2018-05-25T20:55:42.777Z,14.97
2018-05-25T20:57:16.770Z,14.50
2018-05-25T20:58:50.742Z,13.97
2018-05-25T21:00:24.673Z,16.93
2018-05-25T21:01:59.723Z,19.23
2018-05-25T21:03:33.706Z,20.23
2018-05-25T21:05:07.658Z,21.00
2018-05-25T21:06:41.648Z,21.90
2018-05-25T21:08:15.576Z,23.13
2018-05-25T21:09:50.354Z,24.47
2018-05-25T21:11:24.299Z,24.23
2018-05-25T21:12:58.241Z,24.10
2018-05-25T21:14:33.265Z,24.37
2018-05-25T21:16:07.211Z,24.13
2018-05-25T21:17:41.177Z,24.13
2018-05-25T21:19:15.180Z,24.30
2018-05-25T21:20:49.104Z,21.87
2018-05-25T21:22:23.038Z,21.90
2018-05-25T21:23:57.003Z,20.30
2018-05-25T21:25:30.987Z,19.60
2018-05-25T21:27:04.984Z,19.80
2018-05-25T21:28:38.981Z,20.00
2018-05-25T21:30:12.899Z,19.37
2018-05-25T21:31:46.909Z,17.87
2018-05-25T21:33:20.916Z,17.73
2018-05-25T21:34:54.909Z,18.23
2018-05-25T21:36:28.879Z,17.80
2018-05-25T21:38:02.970Z,16.47
2018-05-25T21:39:36.993Z,16.20
2018-05-25T21:41:11.054Z,15.93
2018-05-25T21:42:45.061Z,14.63
2018-05-25T21:44:19.039Z,14.73
2018-05-25T21:45:52.999Z,14.50
2018-05-25T21:47:27.992Z,13.07
2018-05-25T21:49:01.968Z,14.03
2018-05-25T21:50:35.958Z,12.37
2018-05-25T21:52:09.887Z,11.80
2018-05-25T21:53:43.829Z,12.73
2018-05-25T21:55:17.765Z,12.47
2018-05-25T21:56:51.699Z,12.03
2018-05-25T21:58:25.617Z,11.77
2018-05-25T21:59:59.628Z,11.47
2018-05-25T22:01:33.580Z,11.13
2018-05-25T22:03:07.515Z,12.53
2018-05-25T22:04:41.480Z,11.67
2018-05-25T22:06:15.467Z,11.77
2018-05-25T22:07:49.421Z,11.23
2018-05-25T22:09:23.350Z,11.83
2018-05-25T22:10:58.109Z,10.80
2018-05-25T22:12:32.041Z,10.60
2018-05-25T22:14:05.982Z,10.37
2018-05-25T22:15:41.951Z,10.77
2018-05-25T22:17:15.943Z,9.73
2018-05-25T22:18:50.663Z,10.00
2018-05-25T22:20:24.615Z,9.33
2018-05-25T22:21:58.571Z,8.80
2018-05-25T22:23:32.495Z,8.63
2018-05-25T22:25:06.445Z,9.30
2018-05-25T22:26:40.410Z,8.83
2018-05-25T22:28:14.320Z,8.80
2018-05-25T22:29:48.243Z,8.47
2018-05-25T22:31:22.193Z,8.50
2018-05-25T22:32:56.155Z,8.57
2018-05-25T22:34:30.064Z,8.70
2018-05-25T22:36:04.003Z,8.50
2018-05-25T22:37:37.929Z,8.23
2018-05-25T22:39:11.877Z,8.97
2018-05-25T22:40:45.862Z,8.13
2018-05-25T22:42:31.634Z,8.13
2018-05-25T22:44:17.285Z,7.70
2018-05-25T22:46:03.019Z,8.03
2018-05-25T22:47:48.706Z,8.13
2018-05-25T22:49:35.226Z,7.80
2018-05-25T22:51:21.690Z,7.63
2018-05-25T22:53:01.496Z,7.57
2018-05-25T22:54:40.983Z,8.23
2018-05-25T22:56:14.923Z,8.07
2018-05-25T22:57:48.828Z,7.30
2018-05-25T22:59:23.487Z,8.83
2018-05-25T23:00:57.444Z,8.03
2018-05-25T23:02:31.340Z,8.43
2018-05-25T23:04:05.258Z,7.43
2018-05-25T23:05:39.131Z,8.13
2018-05-25T23:07:13.064Z,7.20
2018-05-25T23:08:46.969Z,7.43
2018-05-25T23:10:20.898Z,7.30
2018-05-25T23:11:56.455Z,7.20
2018-05-25T23:13:30.955Z,7.03
2018-05-25T23:15:04.900Z,7.40
2018-05-25T23:16:38.834Z,8.03
2018-05-25T23:18:12.759Z,8.10
2018-05-25T23:19:46.717Z,7.17
2018-05-25T23:21:21.403Z,6.97
2018-05-25T23:22:55.313Z,8.00
2018-05-25T23:24:29.221Z,7.10
2018-05-25T23:26:03.136Z,7.40
2018-05-25T23:27:37.066Z,7.83
2018-05-25T23:29:10.982Z,7.87
2018-05-25T23:30:44.914Z,6.93
2018-05-25T23:32:19.610Z,8.13
2018-05-25T23:33:53.501Z,8.10
2018-05-25T23:35:27.429Z,7.70
2018-05-25T23:37:01.989Z,7.73
2018-05-25T23:38:35.938Z,6.63
2018-05-25T23:40:09.837Z,7.50
2018-05-25T23:41:43.755Z,8.10
2018-05-25T23:43:17.667Z,7.80
2018-05-25T23:44:51.763Z,7.50
2018-05-25T23:46:25.670Z,7.87
2018-05-25T23:47:59.563Z,6.90